createdAt,value
2023-02-11T00:00:40.999Z,-0.31
2023-02-11T00:03:43.650Z,-0.37
2023-02-11T00:06:47.066Z,-0.37
2023-02-11T00:09:50.647Z,-0.43
2023-02-11T00:12:53.186Z,-0.50
2023-02-11T00:15:56.621Z,-0.37
2023-02-11T00:19:00.578Z,-0.36
2023-02-11T00:22:04.117Z,-0.47
2023-02-11T00:25:09.665Z,-0.35
2023-02-11T00:28:13.496Z,-0.42
2023-02-11T00:31:18.291Z,-0.51
2023-02-11T00:34:20.982Z,-0.57
2023-02-11T00:37:23.653Z,-0.54
2023-02-11T00:40:31.198Z,-0.54
2023-02-11T00:43:35.712Z,-0.54
2023-02-11T00:46:39.090Z,-0.49
2023-02-11T00:49:42.534Z,-0.63
2023-02-11T00:52:45.265Z,-0.71
2023-02-11T00:55:49.002Z,-0.69
2023-02-11T00:58:54.244Z,-0.70
2023-02-11T01:01:57.676Z,-0.78
2023-02-11T01:05:01.131Z,-0.79
2023-02-11T01:08:04.033Z,-0.81
2023-02-11T01:11:13.767Z,-0.76
2023-02-11T01:14:18.205Z,-0.52
2023-02-11T01:17:20.887Z,-0.43
2023-02-11T01:20:28.419Z,-0.53
2023-02-11T01:23:33.363Z,-0.57
2023-02-11T01:26:36.584Z,-0.64
2023-02-11T01:29:39.194Z,-0.71
2023-02-11T01:32:41.810Z,-0.76
2023-02-11T01:35:45.578Z,-0.84
2023-02-11T01:38:49.929Z,-0.91
2023-02-11T01:41:55.376Z,-0.96
2023-02-11T01:45:01.704Z,-0.98
2023-02-11T01:48:06.306Z,-0.97
2023-02-11T01:51:29.732Z,-1.03
2023-02-11T01:54:56.534Z,-1.03
2023-02-11T01:58:05.076Z,-0.80
2023-02-11T02:01:11.062Z,-0.77
2023-02-11T02:04:17.906Z,-0.90
2023-02-11T02:07:36.773Z,-0.92
2023-02-11T02:10:54.725Z,-1.00
2023-02-11T02:14:00.327Z,-1.06
2023-02-11T02:17:03.056Z,-1.14
2023-02-11T02:20:11.973Z,-1.07
2023-02-11T02:23:33.380Z,-0.94
2023-02-11T02:26:49.670Z,-0.72
2023-02-11T02:30:20.146Z,-0.86
2023-02-11T02:33:44.722Z,-0.91
2023-02-11T02:36:59.084Z,-1.00
2023-02-11T02:40:11.624Z,-1.11
2023-02-11T02:43:15.392Z,-1.16
2023-02-11T02:46:27.245Z,-1.13
2023-02-11T02:49:30.702Z,-1.12
2023-02-11T02:52:48.552Z,-1.11
2023-02-11T02:56:09.519Z,-1.15
2023-02-11T02:59:31.449Z,-1.08
2023-02-11T03:02:40.432Z,-1.20
2023-02-11T03:06:24.534Z,-1.15
2023-02-11T03:09:42.647Z,-1.21
2023-02-11T03:12:48.610Z,-1.20
2023-02-11T03:15:55.386Z,-1.22
2023-02-11T03:19:24.316Z,-1.38
2023-02-11T03:22:35.147Z,-1.39
2023-02-11T03:25:45.672Z,-1.32
2023-02-11T03:28:54.320Z,-1.32
2023-02-11T03:32:04.095Z,-1.29
2023-02-11T03:35:23.366Z,-1.40
2023-02-11T03:38:33.321Z,-1.59
2023-02-11T03:41:37.261Z,-1.50
2023-02-11T03:44:58.465Z,-1.43
2023-02-11T03:48:07.266Z,-1.43
2023-02-11T03:51:12.731Z,-1.47
2023-02-11T03:54:20.901Z,-1.57
2023-02-11T03:57:24.028Z,-1.58
2023-02-11T04:00:35.442Z,-1.61
2023-02-11T04:03:38.246Z,-1.60
2023-02-11T04:06:41.963Z,-1.65
2023-02-11T04:09:44.926Z,-1.64
2023-02-11T04:12:47.684Z,-1.72
2023-02-11T04:15:51.686Z,-1.68
2023-02-11T04:18:54.486Z,-1.68
2023-02-11T04:21:58.230Z,-1.76
2023-02-11T04:25:01.889Z,-1.72
2023-02-11T04:28:05.426Z,-1.80
2023-02-11T04:31:08.052Z,-1.90
2023-02-11T04:34:11.573Z,-1.89
2023-02-11T04:37:15.978Z,-1.87
2023-02-11T04:40:18.747Z,-1.98
2023-02-11T04:43:24.019Z,-1.86
2023-02-11T04:46:26.822Z,-1.85
2023-02-11T04:49:29.503Z,-2.03
2023-02-11T04:52:33.094Z,-2.07
2023-02-11T04:55:35.659Z,-2.06
2023-02-11T04:58:39.352Z,-1.96
2023-02-11T05:01:43.009Z,-1.89
2023-02-11T05:04:46.526Z,-1.92
2023-02-11T05:07:49.303Z,-1.96
2023-02-11T05:10:53.053Z,-1.87
2023-02-11T05:13:56.460Z,-1.90
2023-02-11T05:16:59.357Z,-1.89
2023-02-11T05:20:02.238Z,-1.90
2023-02-11T05:23:05.061Z,-1.91
2023-02-11T05:26:08.972Z,-1.92
2023-02-11T05:29:12.382Z,-1.92
2023-02-11T05:32:17.741Z,-2.13
2023-02-11T05:35:21.175Z,-2.29
2023-02-11T05:38:26.527Z,-2.05
2023-02-11T05:41:29.122Z,-2.11
2023-02-11T05:44:32.018Z,-2.13
2023-02-11T05:47:35.416Z,-2.27
2023-02-11T05:50:38.927Z,-2.27
2023-02-11T05:53:42.537Z,-2.02
2023-02-11T05:56:45.888Z,-1.76
2023-02-11T05:59:48.545Z,-1.81
2023-02-11T06:02:52.970Z,-1.90
2023-02-11T06:05:55.593Z,-1.95
2023-02-11T06:08:59.977Z,-2.00
2023-02-11T06:12:02.601Z,-1.97
2023-02-11T06:15:08.883Z,-1.90
2023-02-11T06:18:12.567Z,-2.02
2023-02-11T06:21:15.994Z,-2.06
2023-02-11T06:24:38.420Z,-2.06
2023-02-11T06:27:41.334Z,-1.99
2023-02-11T06:30:45.030Z,-1.78
2023-02-11T06:33:47.809Z,-1.72
2023-02-11T06:36:50.998Z,-1.42
2023-02-11T06:39:53.629Z,-1.31
2023-02-11T06:42:56.298Z,-1.29
2023-02-11T06:45:59.482Z,-1.13
2023-02-11T06:49:02.163Z,-1.14
2023-02-11T06:52:05.872Z,-1.05
2023-02-11T06:55:09.621Z,-1.02
2023-02-11T06:58:12.241Z,-0.98
2023-02-11T07:01:16.479Z,-0.92
2023-02-11T07:04:19.496Z,-0.84
2023-02-11T07:07:23.219Z,-0.77
2023-02-11T07:10:26.574Z,-0.76
2023-02-11T07:13:29.199Z,-0.63
2023-02-11T07:16:33.146Z,-0.53
2023-02-11T07:19:36.966Z,-0.42
2023-02-11T07:22:39.606Z,-0.32
2023-02-11T07:25:43.020Z,-0.04
2023-02-11T07:28:51.165Z,0.15
2023-02-11T07:31:55.182Z,0.24
2023-02-11T07:34:58.042Z,0.11
2023-02-11T07:38:00.789Z,0.26
2023-02-11T07:41:06.879Z,0.44
2023-02-11T07:44:10.724Z,0.91
2023-02-11T07:47:14.112Z,1.08
2023-02-11T07:50:17.940Z,0.96
2023-02-11T07:53:20.618Z,1.25
2023-02-11T07:56:23.578Z,1.21
2023-02-11T07:59:27.471Z,1.20
2023-02-11T08:02:30.260Z,1.35
2023-02-11T08:05:33.602Z,1.22
2023-02-11T08:08:37.203Z,1.27
2023-02-11T08:11:39.772Z,1.52
2023-02-11T08:14:43.162Z,1.54
2023-02-11T08:17:47.654Z,1.68
2023-02-11T08:20:51.335Z,1.53
2023-02-11T08:23:54.701Z,1.28
2023-02-11T08:26:57.433Z,1.37
2023-02-11T08:30:01.894Z,1.62
2023-02-11T08:33:05.594Z,2.05
2023-02-11T08:36:14.144Z,2.25
2023-02-11T08:39:21.122Z,2.51
2023-02-11T08:42:24.673Z,2.52
2023-02-11T08:45:28.612Z,2.67
2023-02-11T08:48:32.203Z,2.68
2023-02-11T08:51:35.694Z,2.82
2023-02-11T08:54:39.318Z,3.12
2023-02-11T08:57:41.918Z,3.28
2023-02-11T09:00:45.432Z,3.53
2023-02-11T09:03:48.450Z,3.66
2023-02-11T09:06:51.104Z,3.68
2023-02-11T09:09:54.819Z,3.94
2023-02-11T09:12:57.788Z,3.90
2023-02-11T09:16:03.500Z,4.38
2023-02-11T09:19:06.556Z,4.42
2023-02-11T09:22:10.318Z,4.34
2023-02-11T09:25:13.077Z,4.74
2023-02-11T09:28:16.754Z,4.94
2023-02-11T09:31:24.031Z,5.08
2023-02-11T09:34:26.984Z,5.37
2023-02-11T09:37:30.298Z,4.89
2023-02-11T09:40:34.081Z,5.10
2023-02-11T09:43:44.714Z,5.13
2023-02-11T09:46:55.841Z,5.58
2023-02-11T09:50:07.694Z,5.60
2023-02-11T09:53:16.926Z,5.43
2023-02-11T09:56:20.323Z,5.33
2023-02-11T09:59:23.876Z,5.79
2023-02-11T10:02:46.959Z,5.69
2023-02-11T10:06:01.690Z,6.03
2023-02-11T10:09:35.594Z,5.91
2023-02-11T10:12:39.190Z,5.88
2023-02-11T10:16:00.410Z,5.70
2023-02-11T10:19:28.069Z,5.82
2023-02-11T10:22:42.529Z,5.72
2023-02-11T10:25:49.579Z,5.68
2023-02-11T10:28:54.632Z,5.68
2023-02-11T10:31:58.891Z,5.78
2023-02-11T10:35:10.584Z,5.89
2023-02-11T10:38:13.314Z,6.01
2023-02-11T10:41:26.489Z,6.12
2023-02-11T10:44:37.652Z,6.35
2023-02-11T10:47:41.652Z,6.73
2023-02-11T10:50:44.420Z,7.03
2023-02-11T10:54:13.833Z,6.90
2023-02-11T10:57:20.147Z,7.00
2023-02-11T11:00:42.343Z,7.29
2023-02-11T11:03:51.917Z,7.56
2023-02-11T11:06:55.845Z,7.45
2023-02-11T11:10:06.783Z,7.48
2023-02-11T11:13:29.898Z,7.14
2023-02-11T11:16:35.289Z,6.44
2023-02-11T11:19:39.297Z,6.79
2023-02-11T11:22:43.631Z,6.78
2023-02-11T11:26:04.221Z,6.42
2023-02-11T11:29:16.317Z,6.38
2023-02-11T11:32:37.161Z,6.39
2023-02-11T11:35:41.076Z,6.87
2023-02-11T11:38:58.104Z,6.84
2023-02-11T11:42:06.266Z,7.07
2023-02-11T11:45:10.232Z,6.88
2023-02-11T11:48:34.410Z,7.20
2023-02-11T11:51:40.461Z,6.98
2023-02-11T11:54:50.554Z,7.25
2023-02-11T11:57:53.186Z,7.60
2023-02-11T12:01:11.598Z,7.72
2023-02-11T12:04:32.836Z,7.91
2023-02-11T12:07:50.302Z,7.93
2023-02-11T12:11:02.001Z,8.24
2023-02-11T12:14:17.011Z,8.06
2023-02-11T12:17:46.759Z,7.77
2023-02-11T12:21:14.931Z,8.38
2023-02-11T12:24:25.376Z,8.48
2023-02-11T12:27:50.835Z,8.13
2023-02-11T12:31:49.500Z,8.51
2023-02-11T12:34:59.669Z,8.63
2023-02-11T12:38:18.863Z,8.64
2023-02-11T12:42:03.564Z,8.49
2023-02-11T12:45:09.518Z,8.69
2023-02-11T12:48:29.160Z,8.45
2023-02-11T12:51:36.863Z,8.27
2023-02-11T12:55:00.599Z,8.29
2023-02-11T12:58:04.535Z,8.25
2023-02-11T13:01:23.885Z,8.25
2023-02-11T13:04:37.786Z,8.56
2023-02-11T13:07:45.346Z,8.79
2023-02-11T13:10:53.204Z,8.99
2023-02-11T13:14:02.124Z,9.14
2023-02-11T13:17:18.479Z,8.83
2023-02-11T13:20:37.032Z,8.61
2023-02-11T13:23:58.006Z,8.84
2023-02-11T13:27:32.169Z,8.75
2023-02-11T13:30:41.045Z,8.75
2023-02-11T13:33:44.501Z,8.73
2023-02-11T13:36:55.906Z,8.08
2023-02-11T13:40:20.440Z,8.40
2023-02-11T13:43:28.861Z,8.45
2023-02-11T13:46:51.103Z,7.94
2023-02-11T13:49:54.606Z,8.11
2023-02-11T13:53:01.459Z,8.35
2023-02-11T13:56:08.877Z,8.32
2023-02-11T13:59:33.060Z,8.41
2023-02-11T14:03:00.227Z,8.74
2023-02-11T14:06:48.047Z,8.47
2023-02-11T14:09:57.080Z,8.39
2023-02-11T14:13:22.342Z,8.46
2023-02-11T14:16:37.548Z,8.35
2023-02-11T14:19:48.054Z,8.26
2023-02-11T14:22:53.541Z,8.44
2023-02-11T14:26:08.907Z,8.73
2023-02-11T14:29:26.239Z,8.94
2023-02-11T14:33:00.029Z,8.69
2023-02-11T14:36:28.594Z,8.75
2023-02-11T14:39:52.734Z,8.63
2023-02-11T14:43:01.949Z,8.66
2023-02-11T14:46:05.768Z,8.55
2023-02-11T14:49:33.986Z,8.66
2023-02-11T14:52:38.897Z,8.35
2023-02-11T14:55:44.537Z,8.45
2023-02-11T14:58:49.539Z,8.49
2023-02-11T15:01:57.016Z,8.36
2023-02-11T15:05:20.682Z,7.93
2023-02-11T15:08:24.674Z,8.09
2023-02-11T15:11:31.843Z,7.95
2023-02-11T15:14:36.706Z,8.03
2023-02-11T15:17:39.518Z,8.13
2023-02-11T15:20:42.187Z,8.21
2023-02-11T15:23:56.672Z,8.22
2023-02-11T15:27:16.271Z,8.12
2023-02-11T15:30:21.973Z,8.03
2023-02-11T15:33:27.690Z,7.93
2023-02-11T15:36:33.160Z,7.97
2023-02-11T15:39:41.122Z,7.84
2023-02-11T15:43:06.243Z,7.76
2023-02-11T15:46:14.046Z,7.62
2023-02-11T15:49:19.279Z,7.60
2023-02-11T15:52:26.838Z,7.68
2023-02-11T15:55:30.274Z,7.54
2023-02-11T15:58:38.181Z,7.46
2023-02-11T16:01:42.774Z,7.29
2023-02-11T16:04:56.605Z,7.35
2023-02-11T16:08:01.436Z,7.29
2023-02-11T16:11:09.229Z,7.03
2023-02-11T16:14:42.264Z,7.14
2023-02-11T16:17:45.703Z,7.17
2023-02-11T16:20:49.761Z,7.30
2023-02-11T16:23:56.475Z,7.03
2023-02-11T16:27:29.836Z,6.95
2023-02-11T16:30:38.320Z,7.15
2023-02-11T16:33:42.132Z,7.09
2023-02-11T16:36:47.502Z,6.97
2023-02-11T16:39:55.296Z,6.96
2023-02-11T16:42:59.264Z,6.98
2023-02-11T16:46:02.105Z,6.99
2023-02-11T16:49:11.639Z,6.72
2023-02-11T16:52:16.850Z,6.70
2023-02-11T16:55:22.048Z,6.76
2023-02-11T16:58:25.285Z,6.79
2023-02-11T17:01:28.795Z,6.90
2023-02-11T17:04:34.420Z,6.79
2023-02-11T17:07:37.440Z,6.76
2023-02-11T17:10:41.287Z,6.95
2023-02-11T17:13:46.862Z,6.84
2023-02-11T17:16:50.804Z,6.83
2023-02-11T17:19:53.891Z,6.88
2023-02-11T17:22:56.857Z,6.83
2023-02-11T17:26:00.719Z,6.88
2023-02-11T17:29:12.179Z,6.81
2023-02-11T17:32:15.594Z,6.75
2023-02-11T17:35:19.251Z,6.84
2023-02-11T17:38:23.215Z,6.74
2023-02-11T17:41:27.349Z,6.61
2023-02-11T17:44:30.781Z,6.84
2023-02-11T17:47:33.664Z,6.79
2023-02-11T17:50:40.812Z,6.78
2023-02-11T17:53:43.986Z,6.71
2023-02-11T17:56:50.706Z,6.76
2023-02-11T17:59:54.849Z,6.61
2023-02-11T18:03:02.742Z,6.73
2023-02-11T18:06:06.809Z,6.56
2023-02-11T18:09:11.415Z,6.61
2023-02-11T18:12:14.414Z,6.62
2023-02-11T18:15:18.584Z,6.20
2023-02-11T18:18:21.730Z,6.54
2023-02-11T18:21:25.964Z,6.60
2023-02-11T18:24:30.279Z,6.53
2023-02-11T18:27:32.894Z,6.60
2023-02-11T18:30:36.399Z,6.55
2023-02-11T18:33:41.374Z,6.58
2023-02-11T18:36:44.963Z,6.46
2023-02-11T18:39:48.912Z,6.53
2023-02-11T18:42:52.297Z,6.60
2023-02-11T18:45:55.895Z,6.46
2023-02-11T18:48:58.896Z,6.47
2023-02-11T18:52:03.424Z,6.60
2023-02-11T18:55:07.658Z,6.70
2023-02-11T18:58:10.905Z,6.68
2023-02-11T19:01:21.114Z,6.82
2023-02-11T19:04:24.872Z,6.79
2023-02-11T19:07:27.947Z,6.72
2023-02-11T19:10:31.395Z,6.50
2023-02-11T19:13:35.384Z,6.60
2023-02-11T19:16:43.710Z,6.66
2023-02-11T19:19:48.498Z,6.65
2023-02-11T19:22:51.394Z,6.51
2023-02-11T19:25:54.405Z,6.28
2023-02-11T19:28:59.459Z,6.36
2023-02-11T19:32:05.844Z,6.26
2023-02-11T19:35:09.546Z,6.28
2023-02-11T19:38:15.796Z,6.43
2023-02-11T19:41:24.745Z,6.47
2023-02-11T19:44:28.497Z,6.55
2023-02-11T19:47:31.532Z,6.45
2023-02-11T19:50:36.982Z,6.49
2023-02-11T19:53:41.182Z,6.44
2023-02-11T19:56:44.970Z,6.51
2023-02-11T19:59:49.285Z,6.39
2023-02-11T20:02:52.697Z,6.45
2023-02-11T20:05:55.592Z,6.54
2023-02-11T20:09:02.004Z,6.53
2023-02-11T20:12:06.596Z,6.24
2023-02-11T20:15:10.440Z,6.47
2023-02-11T20:18:14.008Z,6.38
2023-02-11T20:21:19.931Z,6.24
2023-02-11T20:24:23.810Z,6.33
2023-02-11T20:27:32.202Z,6.36
2023-02-11T20:30:35.251Z,6.13
2023-02-11T20:33:38.943Z,6.30
2023-02-11T20:36:42.053Z,6.41
2023-02-11T20:39:45.552Z,6.36
2023-02-11T20:42:48.999Z,6.24
2023-02-11T20:45:53.766Z,6.24
2023-02-11T20:48:57.547Z,6.16
2023-02-11T20:52:00.478Z,6.25
2023-02-11T20:55:03.692Z,6.14
2023-02-11T20:58:09.343Z,6.15
2023-02-11T21:01:20.178Z,6.29
2023-02-11T21:04:29.712Z,6.37
2023-02-11T21:07:32.611Z,6.32
2023-02-11T21:10:35.372Z,6.18
2023-02-11T21:13:40.261Z,6.46
2023-02-11T21:16:44.145Z,6.30
2023-02-11T21:19:47.003Z,6.33
2023-02-11T21:22:50.189Z,6.30
2023-02-11T21:25:54.663Z,6.18
2023-02-11T21:28:57.962Z,6.16
2023-02-11T21:32:01.105Z,6.09
2023-02-11T21:35:05.567Z,6.30
2023-02-11T21:38:08.328Z,6.34
2023-02-11T21:41:11.873Z,6.39
2023-02-11T21:44:15.744Z,6.16
2023-02-11T21:47:18.403Z,6.13
2023-02-11T21:50:22.084Z,6.06
2023-02-11T21:53:24.815Z,5.90
2023-02-11T21:56:29.655Z,5.99
2023-02-11T21:59:32.731Z,6.18
2023-02-11T22:02:37.978Z,5.87
2023-02-11T22:05:41.383Z,5.86
2023-02-11T22:08:44.820Z,6.01
2023-02-11T22:11:49.349Z,5.98
2023-02-11T22:14:51.856Z,5.81
2023-02-11T22:17:54.466Z,5.89
2023-02-11T22:21:06.967Z,5.69
2023-02-11T22:24:10.566Z,5.48
2023-02-11T22:27:14.693Z,5.47
2023-02-11T22:30:18.197Z,5.53
2023-02-11T22:33:23.127Z,5.50
2023-02-11T22:36:29.877Z,5.44
2023-02-11T22:39:33.184Z,5.31
2023-02-11T22:42:35.939Z,5.37
2023-02-11T22:45:39.152Z,5.25
2023-02-11T22:48:42.425Z,5.25
2023-02-11T22:51:46.496Z,5.10
2023-02-11T22:54:51.329Z,5.31
2023-02-11T22:57:53.928Z,5.33
2023-02-11T23:00:56.625Z,5.37
2023-02-11T23:04:01.258Z,5.18
2023-02-11T23:07:04.688Z,5.17
2023-02-11T23:10:10.552Z,5.20
2023-02-11T23:13:14.240Z,5.16
2023-02-11T23:16:20.155Z,5.34
2023-02-11T23:19:23.979Z,5.16
2023-02-11T23:22:27.931Z,5.25
2023-02-11T23:25:31.429Z,5.17
2023-02-11T23:28:34.076Z,5.29
2023-02-11T23:31:40.437Z,5.27
2023-02-11T23:34:43.240Z,5.24
2023-02-11T23:37:45.929Z,5.06
2023-02-11T23:40:49.175Z,5.19
2023-02-11T23:43:56.412Z,5.11
2023-02-11T23:46:59.733Z,5.03
2023-02-11T23:50:04.161Z,5.20
2023-02-11T23:53:08.713Z,4.95
2023-02-11T23:56:20.189Z,5.11
2023-02-11T23:59:22.966Z,4.97
